Time;durP1;ratioP1;P1;durP2;ratioP2;P2;SDS_P1;SDS_P2;PMS_P1;PMS_P2;Temp;Humidity;BMP_temperature;BMP_pressure;BME280_temperature;BME280_humidity;BME280_pressure;Samples;Min_cycle;Max_cycle;Signal;HPM_P1;HPM_P2
2021/04/27 00:01:46;;;;;;;2.73;1.63;;;;;;;8.59;44.30;97510.09;5031794;28;20204;-71
2021/04/27 00:04:13;;;;;;;6.23;1.60;;;;;;;8.72;44.67;97513.59;5030114;28;20230;-71
2021/04/27 00:06:40;;;;;;;2.23;1.43;;;;;;;8.72;45.01;97504.81;5037428;28;20232;-71
2021/04/27 00:09:08;;;;;;;4.73;1.63;;;;;;;8.70;43.94;97502.34;5030487;28;20232;-71
2021/04/27 00:11:35;;;;;;;6.07;1.60;;;;;;;8.53;44.07;97500.25;5028541;28;20701;-71
2021/04/27 00:14:02;;;;;;;2.37;1.47;;;;;;;8.56;44.33;97499.84;5032858;28;20598;-71
2021/04/27 00:16:28;;;;;;;2.50;1.37;;;;;;;8.54;43.76;97500.06;5027333;28;20206;-71
2021/04/27 00:18:56;;;;;;;5.17;1.67;;;;;;;8.53;44.83;97498.41;5032386;28;20579;-71
2021/04/27 00:21:23;;;;;;;2.90;1.60;;;;;;;8.54;45.07;97491.25;5033071;28;20214;-71
2021/04/27 00:23:50;;;;;;;3.87;2.00;;;;;;;8.50;43.76;97490.00;5036098;28;20246;-70
2021/04/27 00:26:17;;;;;;;14.17;3.70;;;;;;;8.30;43.83;97494.44;5033963;28;20244;-71
2021/04/27 00:28:43;;;;;;;2.23;1.47;;;;;;;8.47;44.21;97483.25;5030869;28;20218;-71
2021/04/27 00:31:10;;;;;;;2.13;1.10;;;;;;;8.51;42.97;97486.31;5046079;28;20213;-71
2021/04/27 00:33:37;;;;;;;2.80;1.40;;;;;;;8.49;40.97;97485.72;5033875;28;20216;-71
2021/04/27 00:36:06;;;;;;;3.90;1.30;;;;;;;8.56;42.33;97475.91;5033504;28;20204;-71
2021/04/27 00:38:33;;;;;;;2.73;1.37;;;;;;;8.52;42.83;97480.00;5032435;28;20204;-71
2021/04/27 00:41:00;;;;;;;2.47;1.43;;;;;;;8.49;42.40;97480.41;5036269;28;21162;-71
2021/04/27 00:43:26;;;;;;;2.10;1.50;;;;;;;8.65;40.30;97480.84;5034814;28;20249;-70
2021/04/27 00:45:53;;;;;;;5.47;1.53;;;;;;;8.67;40.75;97484.13;5034378;28;20556;-71
2021/04/27 00:48:20;;;;;;;3.50;1.53;;;;;;;8.74;39.78;97478.81;5035372;28;20203;-71
2021/04/27 00:50:48;;;;;;;2.27;1.17;;;;;;;8.98;39.72;97472.94;5033651;28;20236;-71
2021/04/27 00:53:16;;;;;;;2.93;1.47;;;;;;;8.80;40.58;97465.53;5036180;28;20198;-71
2021/04/27 00:55:43;;;;;;;2.37;1.40;;;;;;;8.75;40.35;97472.47;5033182;28;20272;-71
2021/04/27 00:58:09;;;;;;;3.90;1.90;;;;;;;8.73;40.43;97469.22;5034279;28;20203;-71
2021/04/27 01:00:39;;;;;;;3.60;1.47;;;;;;;8.81;39.79;97464.50;5031886;28;20224;-70
2021/04/27 01:03:06;;;;;;;3.77;1.80;;;;;;;8.79;40.08;97474.50;5038374;28;20251;-71
2021/04/27 01:05:35;;;;;;;5.80;1.50;;;;;;;8.73;40.45;97475.31;5028834;28;20200;-70
2021/04/27 01:08:08;;;;;;;3.23;1.70;;;;;;;8.80;40.68;97465.53;5031908;28;20207;-70
2021/04/27 01:10:40;;;;;;;2.03;1.50;;;;;;;8.83;40.03;97464.31;5037667;28;20236;-71
2021/04/27 01:13:10;;;;;;;3.27;1.80;;;;;;;8.69;40.41;97460.81;5030206;28;20208;-71
2021/04/27 01:15:37;;;;;;;4.30;1.47;;;;;;;8.91;40.05;97454.28;5033385;28;20213;-71
2021/04/27 01:18:04;;;;;;;1.67;1.13;;;;;;;8.74;41.24;97462.88;5032573;28;20205;-71
2021/04/27 01:20:37;;;;;;;8.23;1.23;;;;;;;8.69;41.13;97463.47;5030820;28;20225;-71
2021/04/27 01:23:13;;;;;;;3.60;1.70;;;;;;;8.66;41.19;97455.88;5029971;28;20711;-71
2021/04/27 01:25:44;;;;;;;3.07;1.27;;;;;;;8.62;41.27;97462.63;5034706;28;20207;-71
2021/04/27 01:28:13;;;;;;;2.37;1.30;;;;;;;8.73;41.39;97459.38;5035237;28;20577;-71
2021/04/27 01:30:41;;;;;;;2.13;1.40;;;;;;;8.60;41.93;97446.06;5033268;28;20303;-71
2021/04/27 01:33:09;;;;;;;4.27;1.50;;;;;;;8.40;42.54;97447.88;5031973;28;20223;-71
2021/04/27 01:35:37;;;;;;;4.37;1.50;;;;;;;8.42;42.53;97443.16;5034591;28;20207;-71
2021/04/27 01:38:06;;;;;;;5.67;1.80;;;;;;;8.39;42.26;97446.22;5037491;28;20200;-71
2021/04/27 01:40:33;;;;;;;4.50;1.63;;;;;;;8.37;42.95;97445.59;5032117;28;20226;-72
2021/04/27 01:43:03;;;;;;;4.17;1.50;;;;;;;8.28;43.26;97441.47;5026653;28;20255;-71
2021/04/27 01:45:31;;;;;;;1.97;1.53;;;;;;;8.36;42.83;97438.66;5031174;28;20258;-71
2021/04/27 01:47:59;;;;;;;5.37;1.73;;;;;;;8.35;42.44;97441.50;5031116;28;20207;-71
2021/04/27 01:50:27;;;;;;;5.80;1.60;;;;;;;8.40;42.42;97442.53;5028792;28;20281;-71
2021/04/27 01:52:54;;;;;;;2.90;1.47;;;;;;;8.38;42.67;97441.09;5033837;28;20212;-71
2021/04/27 01:55:21;;;;;;;3.30;1.40;;;;;;;8.33;42.80;97438.22;5032875;28;20212;-71
2021/04/27 01:57:49;;;;;;;3.63;1.50;;;;;;;8.30;42.67;97436.78;5032760;28;20230;-71
2021/04/27 02:00:18;;;;;;;8.07;1.60;;;;;;;8.27;42.75;97434.53;5030625;28;20227;-71
2021/04/27 02:02:47;;;;;;;2.90;1.67;;;;;;;8.23;42.94;97427.16;5027352;28;20223;-71
2021/04/27 02:05:15;;;;;;;4.33;1.80;;;;;;;8.19;43.22;97417.91;5034002;28;20212;-71
2021/04/27 02:07:41;;;;;;;2.73;1.70;;;;;;;8.32;42.65;97426.78;5031238;28;20218;-71
2021/04/27 02:10:10;;;;;;;2.27;1.40;;;;;;;8.43;42.07;97426.16;5024205;28;20219;-71
2021/04/27 02:12:40;;;;;;;2.50;1.53;;;;;;;8.37;42.51;97423.53;5031679;28;20198;-72
2021/04/27 02:15:09;;;;;;;2.77;1.50;;;;;;;8.28;42.58;97417.53;5033080;28;20211;-71
2021/04/27 02:17:40;;;;;;;2.93;1.50;;;;;;;8.26;43.33;97416.09;5032772;28;20212;-71
2021/04/27 02:20:09;;;;;;;2.10;1.30;;;;;;;8.18;43.31;97414.41;5032606;28;20278;-72
2021/04/27 02:22:36;;;;;;;8.60;1.80;;;;;;;8.09;43.70;97405.00;5032508;28;20226;-71
2021/04/27 02:25:05;;;;;;;1.77;1.47;;;;;;;8.13;43.39;97416.84;5032695;28;20260;-71
2021/04/27 02:27:34;;;;;;;3.13;1.70;;;;;;;7.93;47.09;97408.03;5031943;28;20221;-71
2021/04/27 02:30:03;;;;;;;2.30;1.50;;;;;;;7.91;47.28;97404.72;5032680;28;20757;-71
2021/04/27 02:32:29;;;;;;;2.87;1.77;;;;;;;7.95;46.23;97408.63;5032035;28;20202;-71
2021/04/27 02:34:56;;;;;;;1.97;1.40;;;;;;;7.90;46.73;97407.59;5032445;28;20203;-71
2021/04/27 02:37:24;;;;;;;2.53;1.40;;;;;;;7.87;46.44;97402.69;5030677;28;20206;-71
2021/04/27 02:39:52;;;;;;;4.33;2.00;;;;;;;7.95;47.58;97390.03;5027769;28;20236;-71
2021/04/27 02:42:19;;;;;;;3.97;1.73;;;;;;;7.84;48.31;97393.28;5033294;28;20240;-71
2021/04/27 02:44:46;;;;;;;2.47;1.60;;;;;;;7.74;48.79;97390.16;5031483;28;20269;-71
2021/04/27 02:47:13;;;;;;;4.10;1.50;;;;;;;7.83;47.95;97388.16;5033684;28;20232;-71
2021/04/27 02:49:40;;;;;;;3.00;1.67;;;;;;;7.76;48.94;97380.16;5035186;28;20230;-71
2021/04/27 02:52:07;;;;;;;2.60;1.60;;;;;;;7.52;51.07;97371.88;5043674;28;20664;-71
2021/04/27 02:54:35;;;;;;;2.60;1.57;;;;;;;7.63;49.71;97374.81;5039849;28;20212;-71
2021/04/27 02:57:01;;;;;;;2.53;1.50;;;;;;;7.66;50.08;97373.59;5036168;28;20218;-71
2021/04/27 02:59:28;;;;;;;4.33;1.43;;;;;;;7.61;51.21;97371.50;5035247;28;20600;-71
2021/04/27 03:01:55;;;;;;;2.60;1.67;;;;;;;7.50;49.88;97374.75;5034721;28;20350;-71
2021/04/27 03:04:22;;;;;;;3.27;1.53;;;;;;;7.59;49.92;97365.59;5029701;28;20728;-71
2021/04/27 03:06:49;;;;;;;2.20;1.57;;;;;;;7.54;48.50;97373.34;5035989;28;20582;-71
2021/04/27 03:09:16;;;;;;;5.77;1.60;;;;;;;7.63;48.21;97369.50;5033015;28;20249;-71
2021/04/27 03:11:44;;;;;;;7.83;1.80;;;;;;;7.59;49.71;97365.59;5032051;28;20212;-71
2021/04/27 03:14:10;;;;;;;3.90;1.60;;;;;;;7.54;51.94;97360.06;5031324;28;20205;-71
2021/04/27 03:16:37;;;;;;;2.80;1.77;;;;;;;7.37;53.25;97357.94;5028190;28;20211;-71
2021/04/27 03:19:04;;;;;;;3.13;1.50;;;;;;;7.48;53.48;97363.50;5030776;28;20615;-71
2021/04/27 03:21:31;;;;;;;3.33;1.57;;;;;;;7.36;53.41;97365.06;5031130;28;20249;-71
2021/04/27 03:23:58;;;;;;;2.60;1.50;;;;;;;7.30;54.34;97368.50;5029388;28;20230;-71
2021/04/27 03:26:25;;;;;;;4.10;1.63;;;;;;;7.33;55.18;97364.63;5028929;28;20211;-71
2021/04/27 03:28:52;;;;;;;3.47;1.73;;;;;;;7.25;55.78;97351.56;5030799;28;20232;-71
2021/04/27 03:31:19;;;;;;;2.80;1.30;;;;;;;7.28;55.90;97364.41;5031266;28;20202;-71
2021/04/27 03:33:46;;;;;;;4.47;2.00;;;;;;;7.18;56.08;97358.63;5030559;28;20211;-71
2021/04/27 03:36:13;;;;;;;2.20;1.60;;;;;;;7.02;57.20;97362.44;5032324;28;20569;-71
2021/04/27 03:38:41;;;;;;;2.73;1.73;;;;;;;7.02;56.41;97361.59;5030786;28;20252;-71
2021/04/27 03:41:08;;;;;;;5.43;1.70;;;;;;;6.97;56.87;97371.97;5030063;28;20762;-71
2021/04/27 03:43:34;;;;;;;9.33;1.83;;;;;;;7.04;56.73;97357.75;5035759;28;20230;-71
2021/04/27 03:46:02;;;;;;;3.53;1.90;;;;;;;6.91;57.45;97354.97;5031141;28;20212;-71
2021/04/27 03:48:29;;;;;;;6.27;2.03;;;;;;;6.92;57.31;97364.59;5038330;28;20207;-71
2021/04/27 03:50:56;;;;;;;2.80;1.70;;;;;;;6.78;57.95;97359.38;5033336;28;20236;-71
2021/04/27 03:53:23;;;;;;;3.33;1.80;;;;;;;6.95;57.47;97363.41;5034558;28;20194;-71
2021/04/27 03:55:50;;;;;;;6.70;2.07;;;;;;;6.93;57.97;97360.09;5031283;28;20207;-71
2021/04/27 03:58:17;;;;;;;7.97;2.10;;;;;;;6.87;58.32;97353.75;5026584;28;20244;-71
2021/04/27 04:00:43;;;;;;;3.93;1.43;;;;;;;6.76;58.65;97351.63;5030187;28;20323;-71
2021/04/27 04:03:11;;;;;;;3.00;1.70;;;;;;;6.76;58.19;97348.16;5030521;28;20284;-71
2021/04/27 04:05:38;;;;;;;3.73;1.50;;;;;;;6.77;59.35;97347.97;5025970;28;20203;-71
2021/04/27 04:08:05;;;;;;;4.67;2.00;;;;;;;6.79;59.19;97351.25;5031530;28;20210;-71
2021/04/27 04:10:32;;;;;;;3.17;1.70;;;;;;;6.68;59.28;97354.44;5027521;28;20222;-71
2021/04/27 04:12:59;;;;;;;4.30;1.90;;;;;;;6.76;58.88;97348.16;5021823;28;20207;-70
2021/04/27 04:15:26;;;;;;;2.53;1.50;;;;;;;6.73;59.96;97353.84;5027443;28;20214;-70
2021/04/27 04:17:52;;;;;;;2.67;1.40;;;;;;;6.73;59.36;97354.66;5031495;28;20218;-70
2021/04/27 04:20:22;;;;;;;5.70;1.90;;;;;;;6.66;59.82;97351.13;5030422;28;20562;-70
2021/04/27 04:22:49;;;;;;;2.50;1.40;;;;;;;6.61;60.22;97355.38;5029380;28;20203;-70
2021/04/27 04:25:17;;;;;;;3.73;1.73;;;;;;;6.71;60.36;97354.03;5029119;28;20268;-70
2021/04/27 04:27:44;;;;;;;3.03;1.70;;;;;;;6.58;62.47;97351.28;5022290;28;20206;-70
2021/04/27 04:30:14;;;;;;;3.47;1.70;;;;;;;6.73;59.55;97359.97;5029456;28;20713;-70
2021/04/27 04:32:41;;;;;;;2.37;1.20;;;;;;;6.84;59.92;97356.78;5020180;28;20210;-71
2021/04/27 04:35:09;;;;;;;3.03;1.67;;;;;;;6.80;60.31;97357.38;5024258;28;20202;-71
2021/04/27 04:37:37;;;;;;;5.43;1.73;;;;;;;6.80;59.45;97355.53;5027492;28;20263;-71
2021/04/27 04:40:05;;;;;;;3.37;1.70;;;;;;;6.93;58.90;97360.09;5028053;28;20228;-70
2021/04/27 04:42:31;;;;;;;5.60;2.50;;;;;;;7.05;59.56;97367.34;5030084;28;20211;-71
2021/04/27 04:44:58;;;;;;;2.57;1.60;;;;;;;7.12;58.78;97357.59;5028702;28;20205;-71
2021/04/27 04:47:25;;;;;;;5.57;1.93;;;;;;;7.23;57.49;97365.00;5031274;28;20203;-71
2021/04/27 04:49:52;;;;;;;3.53;2.10;;;;;;;7.36;57.25;97362.41;5029847;28;20245;-71
2021/04/27 04:52:19;;;;;;;3.73;1.57;;;;;;;7.26;56.74;97363.78;5052047;23;20226;-66
2021/04/27 04:54:46;;;;;;;6.27;2.00;;;;;;;7.13;57.98;97361.06;5025706;28;20584;-66
2021/04/27 04:57:13;;;;;;;3.63;1.90;;;;;;;7.57;55.90;97369.47;5022300;28;20207;-68
2021/04/27 04:59:40;;;;;;;4.73;1.80;;;;;;;7.62;55.79;97359.06;5026860;28;20202;-67
2021/04/27 05:02:07;;;;;;;3.77;1.90;;;;;;;7.75;53.01;97372.38;5029537;28;20232;-69
2021/04/27 05:04:34;;;;;;;2.77;1.97;;;;;;;7.76;51.62;97374.84;5027641;28;20231;-66
2021/04/27 05:07:04;;;;;;;3.20;1.97;;;;;;;7.92;51.16;97379.00;5023942;28;20199;-68
2021/04/27 05:09:31;;;;;;;3.23;2.10;;;;;;;7.97;50.97;97379.22;5028708;28;20207;-68
2021/04/27 05:11:59;;;;;;;7.03;1.80;;;;;;;8.19;49.16;97380.69;5030311;28;20226;-68
2021/04/27 05:14:26;;;;;;;3.67;1.80;;;;;;;8.00;49.96;97379.63;5025296;28;20653;-68
2021/04/27 05:16:53;;;;;;;2.83;1.70;;;;;;;8.24;49.36;97386.25;5030912;28;20209;-68
2021/04/27 05:19:20;;;;;;;2.77;2.07;;;;;;;8.02;49.92;97377.59;5031777;28;20203;-68
2021/04/27 05:21:47;;;;;;;6.30;2.00;;;;;;;8.16;49.28;97381.94;5026681;28;20228;-68
2021/04/27 05:24:14;;;;;;;6.30;2.50;;;;;;;8.39;48.63;97382.44;5024775;28;20269;-68
2021/04/27 05:26:40;;;;;;;4.77;2.30;;;;;;;8.25;48.89;97387.91;5030306;28;20249;-68
2021/04/27 05:29:09;;;;;;;4.67;1.53;;;;;;;8.55;48.29;97391.84;5027767;28;20212;-71
2021/04/27 05:31:36;;;;;;;2.43;1.67;;;;;;;8.48;48.66;97383.84;5030568;28;20284;-70
2021/04/27 05:34:03;;;;;;;3.87;1.93;;;;;;;8.31;49.16;97385.25;5024016;28;20204;-68
2021/04/27 05:36:30;;;;;;;3.50;2.00;;;;;;;8.46;48.93;97388.56;5031061;28;20198;-68
2021/04/27 05:38:57;;;;;;;4.30;1.90;;;;;;;8.76;48.61;97391.63;5032266;28;20294;-70
2021/04/27 05:41:25;;;;;;;4.23;2.00;;;;;;;8.49;47.97;97388.16;5028787;28;20198;-72
2021/04/27 05:43:52;;;;;;;5.07;1.97;;;;;;;8.50;47.71;97389.78;5030457;28;20238;-78
2021/04/27 05:46:19;;;;;;;4.77;2.40;;;;;;;8.36;48.17;97393.44;5031131;28;20208;-77
2021/04/27 05:48:46;;;;;;;4.60;2.50;;;;;;;8.87;47.20;97388.34;5030248;28;20212;-67
2021/04/27 05:51:13;;;;;;;6.60;2.03;;;;;;;8.79;48.03;97389.38;5023832;28;20673;-68
2021/04/27 05:53:39;;;;;;;4.17;2.00;;;;;;;8.89;47.63;97379.16;5028330;28;20238;-72
2021/04/27 05:56:06;;;;;;;5.40;1.80;;;;;;;8.92;47.62;97378.75;5030578;28;20205;-71
2021/04/27 05:58:33;;;;;;;5.03;2.07;;;;;;;9.44;44.36;97388.50;5031485;28;20564;-69
2021/04/27 06:01:00;;;;;;;5.73;2.20;;;;;;;9.31;45.51;97380.53;5018723;28;20209;-73
2021/04/27 06:03:28;;;;;;;2.53;1.60;;;;;;;9.81;44.11;97383.28;5027506;28;20287;-71
2021/04/27 06:05:55;;;;;;;6.70;2.17;;;;;;;9.30;44.49;97382.41;5027043;28;20215;-74
2021/04/27 06:08:21;;;;;;;4.40;2.57;;;;;;;9.57;44.33;97381.31;5031476;28;20260;-73
2021/04/27 06:10:48;;;;;;;3.47;2.03;;;;;;;9.78;44.07;97375.69;5028025;28;20216;-73
2021/04/27 06:13:15;;;;;;;2.13;1.83;;;;;;;9.69;43.95;97374.28;5030012;28;20242;-72
2021/04/27 06:15:42;;;;;;;5.47;2.10;;;;;;;9.50;45.59;97377.03;5030234;28;20209;-75
2021/04/27 06:18:09;;;;;;;4.43;2.17;;;;;;;10.19;43.33;97372.66;5028542;28;20209;-73
2021/04/27 06:20:37;;;;;;;9.00;2.30;;;;;;;10.17;42.94;97373.91;5026005;28;20218;-70
2021/04/27 06:23:04;;;;;;;4.73;1.90;;;;;;;9.89;43.45;97374.22;5029927;28;20234;-69
2021/04/27 06:25:31;;;;;;;4.13;2.50;;;;;;;9.72;43.61;97381.88;5028183;28;20211;-70
2021/04/27 06:27:57;;;;;;;5.07;2.27;;;;;;;9.77;43.30;97384.72;5025888;28;20211;-70
2021/04/27 06:30:24;;;;;;;8.40;2.10;;;;;;;10.39;42.51;97370.66;5029115;28;20210;-70
2021/04/27 06:32:53;;;;;;;5.23;2.07;;;;;;;10.15;42.94;97366.13;5028348;28;20233;-71
2021/04/27 06:35:20;;;;;;;4.40;2.53;;;;;;;9.80;43.35;97380.81;5024951;28;20210;-71
2021/04/27 06:37:48;;;;;;;10.03;2.33;;;;;;;10.08;43.10;97378.66;5028481;28;20213;-71
2021/04/27 06:40:16;;;;;;;4.27;2.40;;;;;;;10.22;43.26;97366.09;5023033;28;20233;-71
2021/04/27 06:42:43;;;;;;;10.30;2.47;;;;;;;10.05;43.17;97373.75;5027250;28;20288;-69
2021/04/27 06:45:11;;;;;;;6.17;3.17;;;;;;;10.24;43.64;97375.50;5028666;28;20198;-71
2021/04/27 06:47:38;;;;;;;7.47;2.47;;;;;;;10.56;42.34;97369.94;5029186;28;20651;-69
2021/04/27 06:50:07;;;;;;;3.67;2.13;;;;;;;10.89;41.44;97370.50;5024604;28;20222;-69
2021/04/27 06:52:34;;;;;;;5.83;2.40;;;;;;;11.10;40.63;97385.31;5028303;28;20321;-69
2021/04/27 06:55:02;;;;;;;7.33;3.00;;;;;;;10.49;42.25;97379.84;5029049;28;20202;-69
2021/04/27 06:57:28;;;;;;;4.87;2.53;;;;;;;10.77;42.30;97363.44;5027172;28;20202;-72
2021/04/27 06:59:55;;;;;;;5.30;2.53;;;;;;;10.73;42.18;97380.09;5026692;28;20306;-69
2021/04/27 07:02:22;;;;;;;10.53;2.43;;;;;;;10.32;42.82;97373.41;5029751;28;20230;-72
2021/04/27 07:04:49;;;;;;;7.00;2.60;;;;;;;10.15;43.60;97372.25;5023753;28;20317;-71
2021/04/27 07:07:16;;;;;;;3.63;2.07;;;;;;;11.08;41.18;97366.88;5030642;28;20574;-69
2021/04/27 07:09:43;;;;;;;5.60;2.53;;;;;;;11.63;40.01;97365.09;5026430;28;20203;-76
2021/04/27 07:12:11;;;;;;;4.63;2.70;;;;;;;10.86;40.79;97368.28;5024730;28;20227;-77
2021/04/27 07:14:37;;;;;;;4.13;2.30;;;;;;;11.20;41.14;97362.44;5028416;28;20208;-73
2021/04/27 07:17:04;;;;;;;6.50;2.50;;;;;;;11.24;40.60;97374.31;5029630;28;20630;-69
2021/04/27 07:19:31;;;;;;;4.73;2.70;;;;;;;10.64;41.68;97367.03;5028135;28;20203;-69
2021/04/27 07:21:58;;;;;;;6.37;2.33;;;;;;;10.77;41.21;97376.78;5029251;28;20222;-68
2021/04/27 07:24:25;;;;;;;5.87;2.67;;;;;;;11.77;40.01;97365.75;5028800;28;20714;-69
2021/04/27 07:26:52;;;;;;;4.87;2.43;;;;;;;11.42;39.77;97363.63;5026261;28;20659;-68
2021/04/27 07:29:20;;;;;;;3.87;2.30;;;;;;;11.77;39.53;97371.09;5027544;28;20655;-69
2021/04/27 07:31:47;;;;;;;4.33;2.10;;;;;;;11.63;40.24;97367.75;5029847;28;20238;-69
2021/04/27 07:34:14;;;;;;;4.20;2.67;;;;;;;11.55;40.02;97373.34;5021831;28;20681;-69
2021/04/27 07:36:41;;;;;;;4.87;2.60;;;;;;;11.49;40.16;97364.38;5029949;28;20297;-69
2021/04/27 07:39:09;;;;;;;5.97;2.73;;;;;;;11.47;40.45;97366.44;5025983;28;20605;-69
2021/04/27 07:41:36;;;;;;;12.43;3.03;;;;;;;12.39;38.68;97363.47;5028942;28;20330;-69
2021/04/27 07:44:04;;;;;;;4.17;2.67;;;;;;;12.13;39.41;97366.53;5026421;28;20229;-69
2021/04/27 07:46:32;;;;;;;7.93;3.23;;;;;;;12.03;39.77;97374.28;5029900;28;20249;-69
2021/04/27 07:48:59;;;;;;;5.53;2.87;;;;;;;11.62;39.96;97366.13;5025861;28;20671;-67
2021/04/27 07:51:26;;;;;;;3.40;2.50;;;;;;;11.34;41.18;97361.25;5027497;28;20260;-69
2021/04/27 07:53:53;;;;;;;5.33;2.83;;;;;;;11.39;41.66;97363.25;5024637;28;20681;-70
2021/04/27 07:56:20;;;;;;;7.07;2.80;;;;;;;12.07;39.30;97368.22;5029265;28;20214;-69
2021/04/27 07:58:47;;;;;;;7.70;3.00;;;;;;;11.68;40.04;97364.41;5026826;28;20233;-68
2021/04/27 08:01:13;;;;;;;5.83;2.90;;;;;;;12.49;38.58;97363.75;5028077;28;20209;-68
2021/04/27 08:03:41;;;;;;;8.47;3.33;;;;;;;12.35;39.38;97364.19;5019147;28;20595;-68
2021/04/27 08:06:08;;;;;;;8.83;2.93;;;;;;;12.74;38.37;97367.88;5024289;28;20203;-69
2021/04/27 08:08:35;;;;;;;6.43;3.13;;;;;;;12.77;37.17;97367.41;5026238;28;20206;-69
2021/04/27 08:11:02;;;;;;;7.53;3.10;;;;;;;13.46;36.78;97369.38;5017048;28;20211;-69
2021/04/27 08:13:29;;;;;;;5.70;3.57;;;;;;;12.16;38.66;97373.28;5020212;28;20238;-69
2021/04/27 08:15:55;;;;;;;7.40;2.80;;;;;;;13.22;37.04;97374.97;5018549;28;20220;-71
2021/04/27 08:18:22;;;;;;;4.47;2.83;;;;;;;12.63;37.26;97369.72;5022134;28;20214;-71
2021/04/27 08:20:50;;;;;;;11.47;3.20;;;;;;;13.65;36.78;97370.03;5020170;28;20204;-69
2021/04/27 08:23:17;;;;;;;5.57;3.30;;;;;;;13.34;37.39;97365.06;5021387;28;20291;-69
2021/04/27 08:25:44;;;;;;;5.30;3.00;;;;;;;13.14;37.51;97357.38;5019459;28;20214;-68
2021/04/27 08:28:12;;;;;;;6.93;2.90;;;;;;;13.17;37.26;97362.25;5024579;28;20301;-69
2021/04/27 08:30:39;;;;;;;5.47;3.00;;;;;;;13.68;36.92;97359.66;5022985;28;20213;-68
2021/04/27 08:33:06;;;;;;;4.93;3.17;;;;;;;13.54;36.41;97368.19;5029016;28;20226;-69
2021/04/27 08:35:33;;;;;;;7.03;3.33;;;;;;;13.30;36.85;97367.38;5027246;28;20627;-69
2021/04/27 08:38:01;;;;;;;10.10;4.53;;;;;;;14.09;35.61;97364.00;5026926;28;20576;-69
2021/04/27 08:40:27;;;;;;;4.97;3.20;;;;;;;13.45;36.12;97377.63;5025926;28;20244;-69
2021/04/27 08:42:54;;;;;;;6.77;2.97;;;;;;;13.70;35.48;97373.66;5031097;28;20235;-69
2021/04/27 08:45:21;;;;;;;4.77;3.17;;;;;;;13.67;36.13;97367.97;5029316;28;20228;-68
2021/04/27 08:47:48;;;;;;;5.03;3.03;;;;;;;14.58;35.08;97361.47;5031017;28;20689;-69
2021/04/27 08:50:17;;;;;;;7.60;3.03;;;;;;;15.02;34.14;97366.00;5031849;28;20210;-69
2021/04/27 08:52:44;;;;;;;6.37;3.37;;;;;;;14.96;34.19;97360.78;5030565;28;20241;-69
2021/04/27 08:55:13;;;;;;;9.60;3.73;;;;;;;14.40;34.59;97361.69;5029519;28;20206;-68
2021/04/27 08:57:41;;;;;;;5.67;3.70;;;;;;;13.92;35.22;97368.47;5029786;28;20242;-69
2021/04/27 09:00:12;;;;;;;5.63;3.30;;;;;;;14.86;34.77;97353.38;5032591;28;20209;-68
2021/04/27 09:02:39;;;;;;;5.20;3.83;;;;;;;13.52;36.22;97368.41;5030276;28;20769;-68
2021/04/27 09:05:19;;;;;;;10.70;3.50;;;;;;;14.63;35.95;97347.34;5030885;28;20296;-70
2021/04/27 09:07:47;;;;;;;5.27;3.20;;;;;;;15.26;34.68;97342.44;5031438;28;20214;-70
2021/04/27 09:10:16;;;;;;;5.97;3.37;;;;;;;15.15;34.42;97344.16;5030800;28;20218;-70
2021/04/27 09:12:49;;;;;;;6.63;3.67;;;;;;;15.48;32.92;97349.53;5030539;28;20715;-70
2021/04/27 09:15:25;;;;;;;7.97;3.87;;;;;;;15.06;34.09;97344.81;5032666;28;20209;-70
2021/04/27 09:17:51;;;;;;;8.80;3.47;;;;;;;15.54;32.80;97345.84;5031097;28;20199;-70
2021/04/27 09:20:18;;;;;;;6.50;3.57;;;;;;;15.02;34.13;97335.63;5030440;28;20808;-71
2021/04/27 09:22:45;;;;;;;10.67;3.77;;;;;;;15.10;34.52;97335.22;5028410;28;20228;-70
2021/04/27 09:25:14;;;;;;;10.93;3.97;;;;;;;15.08;34.13;97346.22;5030046;28;20218;-71
2021/04/27 09:27:44;;;;;;;6.57;3.80;;;;;;;15.51;33.50;97340.16;5031266;28;20217;-70
2021/04/27 09:30:13;;;;;;;6.60;4.07;;;;;;;15.82;33.01;97337.63;5029752;28;20285;-71
2021/04/27 09:32:41;;;;;;;7.40;4.10;;;;;;;15.66;33.01;97338.47;5025998;28;20313;-70
2021/04/27 09:35:33;;;;;;;6.27;3.90;;;;;;;15.06;33.65;97331.38;5030550;28;20597;-70
2021/04/27 09:38:08;;;;;;;6.97;3.73;;;;;;;15.63;32.86;97333.59;5023553;28;20207;-70
2021/04/27 09:40:45;;;;;;;15.27;4.30;;;;;;;16.09;32.60;97338.50;5028882;28;20209;-70
2021/04/27 09:43:13;;;;;;;8.80;3.90;;;;;;;16.22;32.15;97331.91;5029689;28;20790;-70
2021/04/27 09:45:40;;;;;;;9.63;3.93;;;;;;;15.16;33.46;97329.69;5031540;28;20236;-70
2021/04/27 09:48:08;;;;;;;10.50;4.10;;;;;;;14.89;34.00;97325.22;5027393;28;20216;-68
2021/04/27 09:50:36;;;;;;;8.77;3.87;;;;;;;15.62;33.41;97323.91;5027531;28;20210;-70
2021/04/27 09:53:03;;;;;;;7.80;3.20;;;;;;;15.62;33.75;97315.03;5027533;28;20289;-70
2021/04/27 09:55:31;;;;;;;10.37;4.20;;;;;;;15.87;32.71;97318.03;5028856;28;20206;-71
2021/04/27 09:58:00;;;;;;;8.73;4.00;;;;;;;15.91;32.71;97319.16;5031282;28;20214;-70
2021/04/27 10:00:32;;;;;;;10.67;4.67;;;;;;;15.66;33.13;97316.94;5030862;28;20557;-71
2021/04/27 10:03:01;;;;;;;7.27;3.63;;;;;;;16.53;33.09;97318.53;5025034;28;20305;-70
2021/04/27 10:05:28;;;;;;;8.47;4.30;;;;;;;16.47;32.06;97314.16;5020299;28;20246;-71
2021/04/27 10:07:58;;;;;;;7.27;4.00;;;;;;;15.67;32.85;97310.53;5028026;28;20325;-70
2021/04/27 10:10:27;;;;;;;8.00;3.93;;;;;;;16.04;32.63;97303.44;5030732;28;20215;-70
2021/04/27 10:12:54;;;;;;;6.93;3.97;;;;;;;16.04;32.61;97305.31;5029926;28;20312;-70
2021/04/27 10:15:21;;;;;;;10.30;4.43;;;;;;;16.20;32.41;97305.22;5028631;28;20286;-70
2021/04/27 10:17:49;;;;;;;7.20;4.07;;;;;;;16.98;31.64;97302.75;5029041;28;20216;-70
2021/04/27 10:20:16;;;;;;;9.43;4.70;;;;;;;16.51;31.69;97303.69;5031704;28;20274;-70
2021/04/27 10:22:45;;;;;;;7.00;4.37;;;;;;;16.37;32.11;97297.06;5027896;28;20233;-72
2021/04/27 10:25:14;;;;;;;5.80;4.30;;;;;;;17.06;31.03;97294.19;5018767;28;20229;-75
2021/04/27 10:27:41;;;;;;;7.13;4.50;;;;;;;16.21;32.71;97290.69;5025265;28;20215;-70
2021/04/27 10:30:31;;;;;;;12.00;4.73;;;;;;;16.73;32.07;97290.97;5030088;28;20219;-84
2021/04/27 10:33:16;;;;;;;8.20;4.63;;;;;;;17.42;30.40;97297.97;5026177;28;20220;-72
2021/04/27 10:35:59;;;;;;;8.10;4.77;;;;;;;18.00;29.35;97289.59;5028422;28;20238;-78
2021/04/27 10:38:41;;;;;;;8.63;5.17;;;;;;;16.58;31.05;97271.97;5027946;28;20209;-72
2021/04/27 10:41:12;;;;;;;7.53;4.70;;;;;;;16.30;31.88;97274.88;5028718;28;20214;-71
2021/04/27 10:43:53;;;;;;;12.37;5.43;;;;;;;16.01;32.12;97268.94;5025534;28;20241;-71
2021/04/27 10:46:54;;;;;;;10.33;4.83;;;;;;;16.58;31.43;97263.88;5023585;28;20204;-72
2021/04/27 10:49:35;;;;;;;8.87;5.00;;;;;;;16.59;31.58;97255.56;5026715;28;20280;-73
2021/04/27 10:52:03;;;;;;;8.63;4.80;;;;;;;16.74;30.51;97269.16;5031714;28;20317;-84
2021/04/27 10:54:33;;;;;;;7.40;4.73;;;;;;;17.25;30.21;97256.81;5037325;28;20199;-78
2021/04/27 10:57:22;;;;;;;6.73;4.83;;;;;;;16.55;31.43;97257.13;5031891;28;20191;-78
2021/04/27 10:59:54;;;;;;;9.97;5.03;;;;;;;17.02;31.17;97251.84;5025185;28;20205;-69
2021/04/27 11:02:24;;;;;;;8.73;5.10;;;;;;;17.83;31.27;97235.00;5029796;28;20225;-70
2021/04/27 11:04:55;;;;;;;7.63;4.80;;;;;;;17.73;29.91;97243.88;5027001;28;20215;-68
2021/04/27 11:07:39;;;;;;;8.23;4.43;;;;;;;18.49;29.19;97234.09;5030198;28;20202;-68
2021/04/27 11:10:22;;;;;;;8.83;4.40;;;;;;;18.23;28.74;97246.72;5029386;28;20241;-72
2021/04/27 11:12:57;;;;;;;11.83;5.30;;;;;;;17.42;29.33;97244.00;5026217;28;20231;-78
2021/04/27 11:15:25;;;;;;;12.37;5.07;;;;;;;17.25;29.96;97236.06;5023458;28;20194;-78
2021/04/27 11:18:06;;;;;;;9.40;4.93;;;;;;;17.81;29.68;97226.34;5031069;28;20241;-78
2021/04/27 11:20:50;;;;;;;11.37;5.53;;;;;;;17.97;29.79;97225.31;5022674;28;20194;-77
2021/04/27 11:23:37;;;;;;;8.93;5.30;;;;;;;18.65;28.70;97220.28;5019697;28;20261;-77
2021/04/27 11:26:19;;;;;;;10.83;5.33;;;;;;;17.99;28.61;97225.88;5027900;28;20284;-70
2021/04/27 11:28:55;;;;;;;8.80;4.90;;;;;;;18.68;28.75;97225.16;5024702;28;20259;-72
2021/04/27 11:31:22;;;;;;;9.53;4.90;;;;;;;19.00;27.59;97231.06;5026943;28;20198;-73
2021/04/27 11:33:56;;;;;;;9.73;5.40;;;;;;;18.70;27.77;97227.59;5027560;28;20222;-70
2021/04/27 11:36:38;;;;;;;7.23;4.73;;;;;;;18.87;28.05;97223.53;5027070;28;20264;-69
2021/04/27 11:39:11;;;;;;;6.97;4.80;;;;;;;19.72;26.17;97233.34;5025717;28;20204;-68
2021/04/27 11:41:46;;;;;;;9.83;5.53;;;;;;;18.15;26.47;97224.81;5021472;28;20634;-68
2021/04/27 11:44:13;;;;;;;8.67;4.90;;;;;;;18.96;26.46;97223.78;5026408;28;20703;-68